Time;durP1;ratioP1;P1;durP2;ratioP2;P2;SDS_P1;SDS_P2;PMS_P1;PMS_P2;Temp;Humidity;BMP_temperature;BMP_pressure;BME280_temperature;BME280_humidity;BME280_pressure;Samples;Min_cycle;Max_cycle;Signal;HPM_P1;HPM_P2
2023/01/08 00:02:08;;;;;;;2.85;1.80;;;9.90;99.90;;;;;;5068823;28;20497;-79
2023/01/08 00:04:34;;;;;;;;;;;9.90;99.90;;;;;;5070080;28;20496;-80
2023/01/08 00:07:00;;;;;;;2.88;1.77;;;9.90;99.90;;;;;;5068693;28;19920;-79
2023/01/08 00:09:25;;;;;;;3.03;1.63;;;9.80;99.90;;;;;;5070493;28;20423;-79
2023/01/08 00:11:51;;;;;;;4.35;1.80;;;9.90;99.90;;;;;;5069570;28;20068;-83
2023/01/08 00:14:17;;;;;;;3.08;1.90;;;9.90;99.90;;;;;;5070438;28;20052;-79
2023/01/08 00:16:42;;;;;;;4.10;2.05;;;9.90;99.90;;;;;;5068929;28;20056;-80
2023/01/08 00:19:11;;;;;;;4.28;1.70;;;9.90;99.90;;;;;;5069038;28;20055;-79
2023/01/08 00:21:36;;;;;;;3.13;1.98;;;9.90;99.90;;;;;;5069224;28;20508;-80
2023/01/08 00:24:02;;;;;;;5.43;2.40;;;10.00;99.90;;;;;;5068724;28;20049;-79
2023/01/08 00:26:28;;;;;;;3.67;1.90;;;10.00;99.90;;;;;;5072592;28;20043;-79
2023/01/08 00:28:54;;;;;;;3.53;1.80;;;9.90;99.90;;;;;;5074312;28;20056;-83
2023/01/08 00:31:19;;;;;;;5.15;2.10;;;10.00;99.90;;;;;;5074044;28;20044;-80
2023/01/08 00:33:45;;;;;;;7.75;2.20;;;9.90;99.90;;;;;;5074472;28;20053;-80
2023/01/08 00:36:14;;;;;;;3.97;1.90;;;9.90;99.90;;;;;;5072712;28;20157;-80
2023/01/08 00:38:40;;;;;;;5.10;2.00;;;9.90;99.90;;;;;;5073087;28;20068;-78
2023/01/08 00:41:06;;;;;;;4.40;2.10;;;9.90;99.90;;;;;;5073875;28;20122;-80
2023/01/08 00:43:32;;;;;;;3.75;2.08;;;9.90;99.90;;;;;;5074467;28;20497;-80
2023/01/08 00:45:58;;;;;;;4.63;2.08;;;9.80;99.90;;;;;;5073903;28;20049;-80
2023/01/08 00:48:24;;;;;;;4.97;2.03;;;9.90;99.90;;;;;;5072915;28;20044;-79
2023/01/08 00:50:51;;;;;;;4.13;1.95;;;9.90;99.90;;;;;;5073818;28;20052;-79
2023/01/08 00:53:18;;;;;;;3.67;2.08;;;9.90;99.90;;;;;;5073264;28;20057;-80
2023/01/08 00:55:44;;;;;;;2.97;1.70;;;9.90;99.90;;;;;;5073892;28;20044;-79
2023/01/08 00:58:11;;;;;;;3.60;1.90;;;9.90;99.90;;;;;;5072596;28;20045;-80
2023/01/08 01:00:37;;;;;;;5.57;1.92;;;9.90;99.90;;;;;;5073935;28;20092;-79
2023/01/08 01:03:02;;;;;;;3.00;2.00;;;9.90;99.90;;;;;;5072250;28;20051;-80
2023/01/08 01:05:28;;;;;;;3.92;1.92;;;9.90;99.90;;;;;;5074252;28;20037;-79
2023/01/08 01:07:54;;;;;;;3.80;2.00;;;9.90;99.90;;;;;;5073145;28;20083;-81
2023/01/08 01:10:20;;;;;;;7.40;1.90;;;9.80;99.90;;;;;;5073448;28;20076;-80
2023/01/08 01:12:45;;;;;;;3.97;2.20;;;9.80;99.90;;;;;;5073011;28;20094;-78
2023/01/08 01:15:15;;;;;;;3.60;2.10;;;9.80;99.90;;;;;;5072991;28;20067;-79
2023/01/08 01:17:42;;;;;;;4.45;2.20;;;9.70;99.90;;;;;;5072318;28;20052;-79
2023/01/08 01:20:12;;;;;;;4.75;2.47;;;9.70;99.90;;;;;;5072231;28;20485;-78
2023/01/08 01:22:38;;;;;;;4.07;2.40;;;9.60;99.90;;;;;;5073066;28;20099;-80
2023/01/08 01:25:05;;;;;;;3.85;2.38;;;9.60;99.90;;;;;;5073178;28;20101;-79
2023/01/08 01:27:31;;;;;;;3.50;2.20;;;9.60;99.90;;;;;;5073078;28;20052;-78
2023/01/08 01:29:56;;;;;;;3.25;1.92;;;9.60;99.90;;;;;;5072118;28;20058;-82
2023/01/08 01:32:22;;;;;;;6.63;2.13;;;9.60;99.90;;;;;;5073154;28;20083;-80
2023/01/08 01:34:48;;;;;;;5.32;2.20;;;9.60;99.90;;;;;;5071749;28;20036;-79
2023/01/08 01:37:14;;;;;;;5.57;2.00;;;9.50;99.90;;;;;;5070993;28;20070;-80
2023/01/08 01:39:42;;;;;;;6.53;1.70;;;9.40;99.90;;;;;;5073275;28;20048;-75
2023/01/08 01:45:02;;;;;;;1.40;1.00;;;9.10;99.90;;;;;;5072987;28;20095;-73
2023/01/08 01:47:48;;;;;;;4.57;1.20;;;8.90;99.90;;;;;;5072800;28;20044;-74
2023/01/08 01:50:21;;;;;;;6.50;1.45;;;8.70;99.90;;;;;;5072642;28;20044;-74
2023/01/08 01:52:57;;;;;;;3.72;1.35;;;8.60;99.90;;;;;;5054974;28;20047;-74
2023/01/08 01:55:25;;;;;;;3.90;1.20;;;8.50;99.90;;;;;;5072543;28;20482;-74
2023/01/08 01:58:00;;;;;;;4.68;1.05;;;8.40;99.90;;;;;;5072800;28;20040;-71
2023/01/08 02:00:27;;;;;;;3.47;0.90;;;8.30;99.90;;;;;;5073153;28;20131;-78
2023/01/08 02:02:54;;;;;;;3.25;1.13;;;8.20;99.90;;;;;;5054794;28;20068;-72
2023/01/08 02:05:23;;;;;;;9.93;2.47;;;8.20;99.90;;;;;;5072329;28;20440;-72
2023/01/08 02:07:59;;;;;;;1.20;1.02;;;8.10;99.90;;;;;;5070849;28;20036;-74
2023/01/08 02:10:33;;;;;;;4.25;1.15;;;8.10;99.90;;;;;;5072725;28;20060;-74
2023/01/08 02:13:07;;;;;;;1.35;1.00;;;8.10;99.90;;;;;;5073095;28;20109;-79
2023/01/08 02:15:36;;;;;;;3.90;1.17;;;8.10;99.90;;;;;;5073099;28;20055;-74
2023/01/08 02:18:19;;;;;;;3.05;1.17;;;8.20;99.90;;;;;;5072985;28;20432;-75
2023/01/08 02:20:53;;;;;;;3.83;1.20;;;8.10;99.90;;;;;;5073653;28;20044;-74
2023/01/08 02:23:41;;;;;;;5.78;1.63;;;8.20;99.90;;;;;;5072724;28;20044;-74
2023/01/08 02:26:09;;;;;;;3.55;0.90;;;8.20;99.90;;;;;;5073068;28;20045;-74
2023/01/08 02:29:21;;;;;;;5.65;1.08;;;8.20;99.90;;;;;;5073466;28;20332;-74
2023/01/08 02:31:47;;;;;;;2.55;1.08;;;8.20;99.90;;;;;;5066471;28;20100;-74
2023/01/08 02:34:13;;;;;;;2.95;2.13;;;8.20;99.90;;;;;;5072537;28;20616;-74
2023/01/08 02:36:48;;;;;;;2.60;1.23;;;8.10;99.90;;;;;;5072601;28;20123;-74
2023/01/08 02:39:36;;;;;;;9.23;2.13;;;8.20;99.90;;;;;;5072503;28;20094;-75
2023/01/08 02:42:20;;;;;;;3.10;0.93;;;8.20;99.90;;;;;;5072812;28;20059;-80
2023/01/08 02:45:10;;;;;;;3.72;1.20;;;8.20;99.90;;;;;;5073219;28;20441;-75
2023/01/08 02:47:44;;;;;;;3.25;1.40;;;8.20;99.90;;;;;;5072886;28;20098;-74
2023/01/08 02:50:24;;;;;;;5.65;1.95;;;8.20;99.90;;;;;;5072366;28;20048;-74
2023/01/08 02:53:15;;;;;;;2.97;1.60;;;8.20;99.90;;;;;;5072329;28;20052;-74
2023/01/08 02:55:44;;;;;;;2.70;1.52;;;8.30;99.90;;;;;;5062048;28;20102;-77
2023/01/08 02:58:11;;;;;;;3.60;1.70;;;8.30;99.90;;;;;;5071947;28;20045;-75
2023/01/08 03:00:39;;;;;;;5.03;1.80;;;8.40;99.90;;;;;;5072811;28;20135;-74
2023/01/08 03:03:14;;;;;;;7.47;2.55;;;8.40;99.90;;;;;;5071971;28;20056;-76
2023/01/08 03:05:42;;;;;;;3.17;2.00;;;8.50;99.90;;;;;;5072724;28;20048;-75
2023/01/08 03:08:09;;;;;;;6.45;2.60;;;8.60;99.90;;;;;;5071050;28;20040;-74
2023/01/08 03:10:37;;;;;;;3.88;2.13;;;8.70;99.90;;;;;;5072831;28;20105;-75
2023/01/08 03:13:18;;;;;;;7.32;2.70;;;8.70;99.90;;;;;;5072483;28;20078;-80
2023/01/08 03:15:51;;;;;;;6.40;2.65;;;8.80;99.90;;;;;;5072515;28;20494;-74
2023/01/08 03:18:26;;;;;;;8.38;2.67;;;8.90;99.90;;;;;;5071854;28;20055;-76
2023/01/08 03:20:52;;;;;;;12.80;2.95;;;9.00;99.90;;;;;;5072265;28;20056;-76
2023/01/08 03:23:21;;;;;;;5.05;2.70;;;9.00;99.90;;;;;;5071542;28;20090;-75
2023/01/08 03:25:47;;;;;;;8.18;3.13;;;9.10;99.90;;;;;;5071315;28;20052;-74
2023/01/08 03:28:23;;;;;;;;;;;9.10;99.90;;;;;;5072353;28;20051;-74
2023/01/08 03:30:51;;;;;;;6.78;2.95;;;9.20;99.90;;;;;;5072331;28;19920;-75
2023/01/08 03:33:19;;;;;;;5.72;2.80;;;9.20;99.90;;;;;;5071470;28;20044;-75
2023/01/08 03:35:49;;;;;;;5.30;3.10;;;9.20;99.90;;;;;;5072037;28;20127;-74
2023/01/08 03:38:24;;;;;;;7.82;2.65;;;9.30;99.90;;;;;;5071275;28;20149;-74
2023/01/08 03:40:58;;;;;;;7.03;3.25;;;9.30;99.90;;;;;;5072194;28;20080;-74
2023/01/08 03:43:25;;;;;;;6.15;2.50;;;9.30;99.90;;;;;;5071765;28;20048;-75
2023/01/08 03:45:52;;;;;;;;;;;9.20;99.90;;;;;;5072413;28;20128;-74
2023/01/08 03:48:20;;;;;;;8.55;3.35;;;9.20;99.90;;;;;;5071392;28;19927;-74
2023/01/08 03:50:46;;;;;;;8.70;3.13;;;9.10;99.90;;;;;;5072023;28;20448;-77
2023/01/08 03:53:12;;;;;;;;;;;9.10;99.90;;;;;;5071203;28;20402;-75
2023/01/08 03:55:37;;;;;;;9.93;2.70;;;9.00;99.90;;;;;;5071806;28;19927;-74
2023/01/08 03:58:03;;;;;;;6.10;3.00;;;9.00;99.90;;;;;;5071830;28;20040;-74
2023/01/08 04:00:29;;;;;;;6.18;2.70;;;9.00;99.90;;;;;;5070692;28;20121;-74
2023/01/08 04:02:54;;;;;;;7.75;3.30;;;9.00;99.90;;;;;;5071300;28;20091;-74
2023/01/08 04:05:20;;;;;;;7.95;2.72;;;8.90;99.90;;;;;;5071197;28;20128;-74
2023/01/08 04:07:46;;;;;;;7.32;3.22;;;8.90;99.90;;;;;;5071112;28;20044;-74
2023/01/08 04:10:11;;;;;;;6.40;3.03;;;8.90;99.90;;;;;;5070450;28;20047;-74
2023/01/08 04:12:37;;;;;;;8.38;3.28;;;8.90;99.90;;;;;;5071556;28;20080;-72
2023/01/08 04:15:03;;;;;;;11.05;2.58;;;8.90;99.90;;;;;;5071727;28;20087;-72
2023/01/08 04:17:29;;;;;;;8.98;2.70;;;8.80;99.90;;;;;;5070986;28;20676;-72
2023/01/08 04:19:54;;;;;;;7.55;2.30;;;8.70;99.90;;;;;;5071882;28;20078;-72
2023/01/08 04:22:20;;;;;;;9.30;2.70;;;8.60;99.90;;;;;;5068787;28;20040;-72
2023/01/08 04:24:45;;;;;;;5.57;2.50;;;8.60;99.90;;;;;;5070895;28;20485;-71
2023/01/08 04:27:11;;;;;;;6.13;2.53;;;8.60;99.90;;;;;;5071208;28;20179;-73
2023/01/08 04:29:37;;;;;;;4.85;2.40;;;8.50;99.90;;;;;;5071677;28;20136;-71
2023/01/08 04:32:03;;;;;;;6.07;2.22;;;8.50;99.90;;;;;;5071052;28;20047;-72
2023/01/08 04:34:28;;;;;;;7.57;2.05;;;8.40;99.90;;;;;;5071095;28;20045;-72
2023/01/08 04:36:55;;;;;;;3.88;1.90;;;8.40;99.90;;;;;;5070728;28;20060;-74
2023/01/08 04:39:20;;;;;;;8.13;2.03;;;8.40;99.90;;;;;;5053170;28;20088;-72
2023/01/08 04:41:46;;;;;;;4.88;2.17;;;8.40;99.90;;;;;;5071237;28;20092;-72
2023/01/08 04:44:12;;;;;;;4.45;2.10;;;8.30;99.90;;;;;;5069841;28;20496;-78
2023/01/08 04:46:37;;;;;;;5.28;2.75;;;8.30;99.90;;;;;;5071204;28;20067;-70
2023/01/08 04:49:03;;;;;;;6.65;1.80;;;8.30;99.90;;;;;;5071381;28;20055;-71
2023/01/08 04:51:29;;;;;;;4.00;1.75;;;8.20;99.90;;;;;;5070902;28;20087;-72
2023/01/08 04:53:54;;;;;;;3.35;1.77;;;8.30;99.90;;;;;;5071042;28;20508;-73
2023/01/08 04:56:20;;;;;;;5.45;1.92;;;8.20;99.90;;;;;;5070750;28;20052;-73
2023/01/08 04:58:46;;;;;;;6.97;1.98;;;8.20;99.90;;;;;;5071405;28;20520;-73
2023/01/08 05:01:20;;;;;;;7.93;2.50;;;8.20;99.90;;;;;;5070887;28;20051;-80
2023/01/08 05:03:45;;;;;;;3.53;1.58;;;8.20;99.90;;;;;;5071240;28;20095;-73
2023/01/08 05:06:11;;;;;;;4.93;2.22;;;8.20;99.90;;;;;;5070555;28;20045;-80
2023/01/08 05:08:37;;;;;;;6.57;2.70;;;8.40;99.90;;;;;;5070410;28;20045;-75
2023/01/08 05:11:03;;;;;;;5.30;2.70;;;8.30;99.90;;;;;;5071120;28;20075;-74
2023/01/08 05:13:29;;;;;;;7.40;2.70;;;8.30;99.90;;;;;;5074028;28;20059;-73
2023/01/08 05:15:59;;;;;;;;;;;8.30;99.90;;;;;;5075210;28;20117;-74
2023/01/08 05:18:25;;;;;;;8.38;2.15;;;8.30;99.90;;;;;;5074140;28;19973;-74
2023/01/08 05:20:50;;;;;;;;;;;8.40;99.90;;;;;;5074993;28;20044;-76
2023/01/08 05:23:16;;;;;;;7.10;1.73;;;8.40;99.90;;;;;;5074137;28;19947;-73
2023/01/08 05:25:42;;;;;;;3.80;1.60;;;8.40;99.90;;;;;;5074635;28;20044;-74
2023/01/08 05:28:08;;;;;;;5.00;2.10;;;8.30;99.90;;;;;;5074561;28;20094;-73
2023/01/08 05:30:35;;;;;;;5.38;1.88;;;8.30;99.90;;;;;;5073033;28;20047;-73
2023/01/08 05:33:00;;;;;;;11.73;2.67;;;8.30;99.90;;;;;;5074110;28;20048;-74
2023/01/08 05:35:26;;;;;;;6.53;2.05;;;8.20;99.90;;;;;;5074099;28;20125;-73
2023/01/08 05:37:52;;;;;;;3.38;1.73;;;8.20;99.90;;;;;;5073470;28;20099;-73
2023/01/08 05:40:17;;;;;;;7.03;1.60;;;8.20;99.90;;;;;;5074063;28;20040;-73
2023/01/08 05:42:43;;;;;;;2.40;1.30;;;8.10;99.90;;;;;;5074298;28;20137;-73
2023/01/08 05:45:09;;;;;;;7.47;1.85;;;8.10;99.90;;;;;;5073369;28;20045;-73
2023/01/08 05:47:35;;;;;;;2.85;1.13;;;8.10;99.90;;;;;;5073630;28;20118;-73
2023/01/08 05:50:00;;;;;;;2.45;1.05;;;8.10;99.90;;;;;;5074253;28;20045;-74
2023/01/08 05:52:26;;;;;;;3.90;1.30;;;8.00;99.90;;;;;;5073143;28;20048;-73
2023/01/08 05:54:52;;;;;;;5.10;1.20;;;8.00;99.90;;;;;;5073974;28;20114;-74
2023/01/08 05:57:18;;;;;;;2.65;1.40;;;8.00;99.90;;;;;;5073219;28;20076;-74
2023/01/08 05:59:44;;;;;;;7.55;1.48;;;8.00;99.90;;;;;;5074096;28;20048;-75
2023/01/08 06:02:09;;;;;;;2.60;1.08;;;8.00;99.90;;;;;;5073550;28;20044;-75
2023/01/08 06:04:35;;;;;;;2.90;1.10;;;8.00;99.90;;;;;;5073316;28;20046;-75
2023/01/08 06:07:01;;;;;;;3.75;1.10;;;8.00;99.90;;;;;;5073087;28;20037;-74
2023/01/08 06:09:26;;;;;;;2.15;1.10;;;8.00;99.90;;;;;;5073229;28;20440;-74
2023/01/08 06:11:52;;;;;;;2.72;1.02;;;8.00;99.90;;;;;;5073711;28;20084;-74
2023/01/08 06:14:18;;;;;;;5.30;1.23;;;7.90;99.90;;;;;;5071820;28;20055;-75
2023/01/08 06:16:44;;;;;;;3.10;1.23;;;7.90;99.90;;;;;;5073762;28;20123;-74
2023/01/08 06:19:10;;;;;;;4.10;1.60;;;7.90;99.90;;;;;;5073696;28;20535;-73
2023/01/08 06:21:37;;;;;;;4.85;1.17;;;7.90;99.90;;;;;;5072969;28;20225;-74
2023/01/08 06:24:02;;;;;;;;;;;7.90;99.90;;;;;;5073005;28;20087;-74
2023/01/08 06:26:28;;;;;;;6.97;1.15;;;7.90;99.90;;;;;;5073033;28;19986;-74
2023/01/08 06:28:54;;;;;;;3.58;1.52;;;8.00;99.90;;;;;;5073493;28;20044;-74
2023/01/08 06:31:19;;;;;;;7.25;1.40;;;7.90;99.90;;;;;;5072866;28;20037;-76
2023/01/08 06:33:45;;;;;;;3.67;1.40;;;7.90;99.90;;;;;;5073162;28;20183;-74
2023/01/08 06:36:11;;;;;;;7.13;1.73;;;7.90;99.90;;;;;;5072739;28;20067;-74
2023/01/08 06:38:36;;;;;;;2.10;0.90;;;7.90;99.90;;;;;;5072533;28;20232;-75
2023/01/08 06:41:07;;;;;;;3.30;1.20;;;7.90;99.90;;;;;;5073205;28;20133;-75
2023/01/08 06:43:34;;;;;;;2.28;1.20;;;7.90;99.90;;;;;;5072877;28;20051;-76
2023/01/08 06:45:59;;;;;;;5.95;1.60;;;8.00;99.90;;;;;;5073161;28;20036;-74
2023/01/08 06:48:25;;;;;;;7.18;1.00;;;8.00;99.90;;;;;;5072449;28;20048;-74
2023/01/08 06:50:51;;;;;;;4.15;1.27;;;7.90;99.90;;;;;;5072840;28;20049;-74
2023/01/08 06:53:17;;;;;;;7.60;1.33;;;8.00;99.90;;;;;;5072543;28;20379;-77
2023/01/08 06:55:43;;;;;;;2.15;1.13;;;8.00;99.90;;;;;;5072434;28;20458;-74
2023/01/08 06:58:13;;;;;;;4.22;2.17;;;8.00;99.90;;;;;;5072770;28;20474;-74
2023/01/08 07:00:39;;;;;;;3.00;1.00;;;7.90;99.90;;;;;;5072254;28;20661;-76
2023/01/08 07:03:05;;;;;;;3.80;1.00;;;7.90;99.90;;;;;;5072428;28;20136;-75
2023/01/08 07:05:31;;;;;;;5.63;1.27;;;7.90;99.90;;;;;;5072463;28;20076;-74
2023/01/08 07:07:57;;;;;;;;;;;7.90;99.90;;;;;;5072317;28;20055;-77
2023/01/08 07:10:23;;;;;;;4.20;1.40;;;7.80;99.90;;;;;;5072310;28;19921;-77
2023/01/08 07:12:48;;;;;;;7.22;1.52;;;7.80;99.90;;;;;;5072430;28;20409;-74
2023/01/08 07:15:15;;;;;;;8.15;1.30;;;7.90;99.90;;;;;;5072582;28;20052;-74
2023/01/08 07:17:40;;;;;;;4.57;1.30;;;7.90;99.90;;;;;;5053951;28;20102;-74
2023/01/08 07:20:08;;;;;;;4.60;1.45;;;7.90;99.90;;;;;;5072294;28;20048;-74
2023/01/08 07:22:34;;;;;;;5.07;1.23;;;7.90;99.90;;;;;;5071458;28;20084;-75
2023/01/08 07:25:00;;;;;;;2.22;1.02;;;7.90;99.90;;;;;;5072407;28;20533;-75
2023/01/08 07:27:25;;;;;;;1.77;1.30;;;7.90;99.90;;;;;;5070647;28;20048;-76
2023/01/08 07:29:51;;;;;;;4.25;1.02;;;7.90;99.90;;;;;;5071334;28;20041;-74
2023/01/08 07:32:17;;;;;;;2.30;1.27;;;7.90;99.90;;;;;;5071737;28;20048;-75
2023/01/08 07:34:42;;;;;;;2.10;1.20;;;7.90;99.90;;;;;;5070106;28;20040;-76
2023/01/08 07:37:08;;;;;;;5.35;1.20;;;7.90;99.90;;;;;;5071042;28;20604;-78
2023/01/08 07:39:34;;;;;;;4.60;1.30;;;7.90;99.90;;;;;;5071654;28;20049;-75
2023/01/08 07:41:59;;;;;;;2.67;1.45;;;8.00;99.90;;;;;;5071943;28;20138;-74
2023/01/08 07:44:25;;;;;;;3.45;1.23;;;7.90;99.90;;;;;;5070307;28;20047;-75
2023/01/08 07:46:51;;;;;;;7.70;1.65;;;7.90;99.90;;;;;;5071750;28;20094;-74
2023/01/08 07:49:16;;;;;;;10.63;1.40;;;7.90;99.90;;;;;;5071685;28;20056;-74
2023/01/08 07:51:42;;;;;;;3.40;1.15;;;7.90;99.90;;;;;;5071364;28;20083;-76
2023/01/08 07:54:08;;;;;;;5.43;1.20;;;7.90;99.90;;;;;;5071573;28;20044;-76
2023/01/08 07:56:33;;;;;;;1.35;1.10;;;7.90;99.90;;;;;;5071379;28;20041;-76
2023/01/08 07:58:59;;;;;;;3.55;1.30;;;7.80;99.90;;;;;;5071970;28;20051;-74
2023/01/08 08:01:25;;;;;;;3.70;1.20;;;7.80;99.90;;;;;;5071464;28;20040;-82
2023/01/08 08:03:51;;;;;;;4.47;1.20;;;7.70;99.90;;;;;;5071789;28;20131;-77
2023/01/08 08:06:17;;;;;;;3.47;1.40;;;7.60;99.90;;;;;;5071614;28;20494;-75
2023/01/08 08:08:43;;;;;;;4.32;1.38;;;7.60;99.90;;;;;;5070800;28;20077;-76
2023/01/08 08:11:09;;;;;;;3.50;1.08;;;7.50;99.90;;;;;;5071751;28;20074;-77
2023/01/08 08:13:35;;;;;;;5.70;1.27;;;7.50;99.90;;;;;;5070874;28;20067;-78
2023/01/08 08:16:02;;;;;;;6.40;1.80;;;7.50;99.90;;;;;;5071610;28;20048;-72
2023/01/08 08:18:28;;;;;;;3.53;1.20;;;7.40;99.90;;;;;;5071030;28;20132;-72
2023/01/08 08:20:54;;;;;;;3.15;1.25;;;7.50;99.90;;;;;;5070217;28;20135;-72
2023/01/08 08:23:19;;;;;;;4.43;1.52;;;7.50;99.90;;;;;;5071301;28;20048;-76
2023/01/08 08:25:45;;;;;;;7.53;1.30;;;7.50;99.90;;;;;;5070890;28;20045;-76
2023/01/08 08:28:11;;;;;;;2.67;1.00;;;7.50;99.90;;;;;;5071347;28;20053;-78
2023/01/08 08:30:38;;;;;;;;;;;7.50;99.90;;;;;;5071455;28;20102;-77
2023/01/08 08:33:05;;;;;;;1.98;1.23;;;7.50;99.90;;;;;;5069963;28;19942;-76
2023/01/08 08:35:32;;;;;;;5.10;1.17;;;7.40;99.90;;;;;;5071049;28;20091;-74
2023/01/08 08:37:58;;;;;;;6.13;1.23;;;7.50;99.90;;;;;;5070758;28;20076;-75
2023/01/08 08:40:24;;;;;;;2.28;1.23;;;7.40;99.90;;;;;;5071272;28;20512;-74
2023/01/08 08:42:58;;;;;;;5.18;1.38;;;7.40;99.90;;;;;;5070967;28;20500;-75
2023/01/08 08:45:24;;;;;;;3.08;1.20;;;7.40;99.90;;;;;;5071454;28;20045;-74
2023/01/08 08:47:49;;;;;;;;;;;7.50;99.90;;;;;;5073892;28;20032;-74
2023/01/08 08:50:15;;;;;;;4.72;1.25;;;7.50;99.90;;;;;;5075050;28;19924;-75
2023/01/08 08:52:43;;;;;;;2.25;1.10;;;7.50;99.90;;;;;;5074470;28;20136;-75
2023/01/08 08:55:12;;;;;;;2.22;1.10;;;7.60;99.90;;;;;;5074246;28;20048;-75
2023/01/08 08:57:37;;;;;;;3.38;1.10;;;7.60;99.90;;;;;;5074601;28;20052;-75
2023/01/08 09:00:03;;;;;;;1.50;1.10;;;7.70;99.90;;;;;;5075473;28;20051;-75
2023/01/08 09:02:29;;;;;;;1.17;1.05;;;7.70;99.90;;;;;;5074688;28;20049;-80
2023/01/08 09:04:55;;;;;;;3.17;1.02;;;7.70;99.90;;;;;;5074823;28;20500;-75
2023/01/08 09:07:20;;;;;;;3.95;1.35;;;7.70;99.90;;;;;;5073995;28;20044;-74
2023/01/08 09:09:46;;;;;;;5.53;1.15;;;7.80;99.90;;;;;;5074640;28;20044;-75
2023/01/08 09:12:11;;;;;;;8.75;1.10;;;7.80;99.90;;;;;;5074755;28;20635;-76
2023/01/08 09:14:38;;;;;;;6.90;1.45;;;7.80;99.90;;;;;;5072983;28;20109;-74
2023/01/08 09:17:04;;;;;;;5.50;1.65;;;7.90;99.90;;;;;;5074508;28;20396;-74
2023/01/08 09:19:30;;;;;;;3.50;1.23;;;7.90;99.90;;;;;;5074699;28;20560;-80
2023/01/08 09:21:56;;;;;;;6.32;1.55;;;7.90;99.90;;;;;;5074172;28;20127;-78
2023/01/08 09:24:21;;;;;;;2.13;1.10;;;7.90;99.90;;;;;;5074406;28;20500;-80
2023/01/08 09:26:47;;;;;;;1.83;1.10;;;8.00;99.90;;;;;;5074151;28;20090;-77
2023/01/08 09:29:12;;;;;;;7.28;1.40;;;8.00;99.90;;;;;;5074718;28;20486;-78
2023/01/08 09:31:38;;;;;;;2.08;1.00;;;8.00;99.90;;;;;;5074047;28;20394;-78
2023/01/08 09:34:04;;;;;;;2.30;0.98;;;8.00;99.90;;;;;;5074322;28;20120;-77
2023/01/08 09:36:30;;;;;;;2.13;1.05;;;8.10;99.90;;;;;;5074139;28;20048;-78
2023/01/08 09:38:55;;;;;;;2.60;1.10;;;8.10;99.90;;;;;;5073469;28;20101;-76
2023/01/08 09:41:29;;;;;;;1.98;1.10;;;8.10;99.90;;;;;;5073681;28;20049;-78
2023/01/08 09:43:57;;;;;;;2.85;1.05;;;8.10;99.90;;;;;;5073619;28;20049;-77
2023/01/08 09:46:27;;;;;;;2.05;0.80;;;8.10;99.90;;;;;;5074136;28;20440;-77
2023/01/08 09:48:57;;;;;;;1.33;1.10;;;8.10;99.90;;;;;;5073854;28;20044;-79
2023/01/08 09:51:31;;;;;;;2.90;1.30;;;8.10;99.90;;;;;;5074184;28;20051;-77
2023/01/08 09:53:56;;;;;;;2.05;1.00;;;8.20;99.90;;;;;;5073430;28;20094;-77
2023/01/08 09:56:22;;;;;;;4.18;1.02;;;8.20;99.90;;;;;;5073966;28;20049;-76
2023/01/08 09:58:57;;;;;;;1.55;0.95;;;8.20;99.90;;;;;;5072519;28;20046;-75
2023/01/08 10:01:34;;;;;;;6.75;1.20;;;8.20;99.90;;;;;;5073483;28;20393;-77
2023/01/08 10:04:05;;;;;;;;;;;8.20;99.90;;;;;;5073826;28;20099;-76
2023/01/08 10:06:31;;;;;;;5.53;1.20;;;8.30;99.90;;;;;;5073496;28;19920;-78
2023/01/08 10:08:58;;;;;;;3.78;1.20;;;8.20;99.90;;;;;;5072985;28;20058;-77
2023/01/08 10:11:27;;;;;;;4.72;1.38;;;8.30;99.90;;;;;;5073754;28;20055;-77
2023/01/08 10:13:55;;;;;;;6.40;1.48;;;8.30;99.90;;;;;;5073173;28;20053;-77
2023/01/08 10:16:36;;;;;;;6.15;1.88;;;8.40;99.90;;;;;;5072998;28;20047;-78
2023/01/08 10:19:03;;;;;;;15.73;1.42;;;8.40;99.90;;;;;;5073709;28;20143;-77
2023/01/08 10:21:38;;;;;;;5.10;1.83;;;8.50;99.90;;;;;;5073011;28;20476;-76
2023/01/08 10:24:04;;;;;;;6.85;1.25;;;8.50;99.90;;;;;;5073342;28;20562;-77
2023/01/08 10:26:35;;;;;;;5.47;1.30;;;8.50;99.90;;;;;;5073273;28;20091;-76
2023/01/08 10:29:17;;;;;;;6.93;1.50;;;8.60;99.90;;;;;;5073266;28;20040;-77
2023/01/08 10:31:51;;;;;;;2.92;1.45;;;8.60;99.90;;;;;;5071908;28;20093;-77
2023/01/08 10:34:31;;;;;;;4.43;1.30;;;8.70;99.90;;;;;;5073319;28;20102;-76
2023/01/08 10:36:57;;;;;;;6.05;1.58;;;8.80;99.90;;;;;;5071334;28;20052;-79
2023/01/08 10:39:28;;;;;;;5.13;1.30;;;8.80;99.90;;;;;;5073007;28;20052;-77
2023/01/08 10:42:02;;;;;;;7.18;1.20;;;8.90;99.90;;;;;;5072834;28;20048;-77
2023/01/08 10:44:29;;;;;;;10.05;1.60;;;8.90;99.90;;;;;;5073312;28;20371;-77
2023/01/08 10:46:58;;;;;;;7.45;1.00;;;9.00;99.90;;;;;;5072218;28;20045;-82
2023/01/08 10:49:45;;;;;;;5.10;1.55;;;9.10;99.90;;;;;;5073339;28;20052;-77
2023/01/08 10:52:28;;;;;;;5.63;1.03;;;9.10;99.90;;;;;;5071327;28;20052;-80
2023/01/08 10:54:54;;;;;;;8.35;1.70;;;9.20;99.90;;;;;;5071588;28;20041;-80
2023/01/08 10:57:29;;;;;;;4.25;1.13;;;9.30;99.90;;;;;;5072553;28;20154;-77
2023/01/08 10:59:55;;;;;;;5.68;1.38;;;9.40;99.90;;;;;;5071470;28;20056;-77
2023/01/08 11:02:30;;;;;;;;;;;9.70;99.90;;;;;;5072763;28;20054;-77
2023/01/08 11:04:57;;;;;;;6.40;1.65;;;10.10;99.90;;;;;;5072308;28;19960;-77
2023/01/08 11:07:24;;;;;;;7.05;1.30;;;10.40;99.90;;;;;;5071489;28;20448;-78
2023/01/08 11:09:52;;;;;;;7.18;1.25;;;10.60;99.90;;;;;;5071977;28;20052;-78
2023/01/08 11:12:31;;;;;;;4.97;1.33;;;10.90;99.90;;;;;;5072386;28;20547;-78
2023/01/08 11:14:57;;;;;;;8.88;2.17;;;11.10;99.90;;;;;;5071394;28;20516;-77
2023/01/08 11:17:27;;;;;;;7.32;1.30;;;11.10;99.90;;;;;;5072139;28;20044;-78
2023/01/08 11:19:53;;;;;;;13.07;2.15;;;11.00;99.90;;;;;;5071744;28;20486;-80
2023/01/08 11:22:23;;;;;;;7.05;1.50;;;11.10;99.90;;;;;;5071822;28;20042;-79
2023/01/08 11:24:51;;;;;;;6.88;1.67;;;11.50;99.90;;;;;;5072013;28;20114;-80
2023/01/08 11:27:25;;;;;;;7.00;1.48;;;11.80;99.90;;;;;;5072271;28;20493;-81
2023/01/08 11:30:18;;;;;;;8.68;1.55;;;12.00;99.90;;;;;;5071209;28;20136;-80
2023/01/08 11:32:53;;;;;;;5.93;1.60;;;12.30;99.90;;;;;;5071443;28;20040;-86
2023/01/08 11:35:27;;;;;;;5.53;1.60;;;12.70;99.90;;;;;;5072327;28;20045;-78
2023/01/08 11:37:57;;;;;;;9.45;2.25;;;13.10;99.90;;;;;;5071294;28;20048;-79
2023/01/08 11:40:53;;;;;;;6.07;1.23;;;13.20;99.90;;;;;;5070841;28;20068;-81
2023/01/08 11:43:25;;;;;;;7.18;1.85;;;12.50;99.90;;;;;;5071201;28;20123;-82
2023/01/08 11:46:44;;;;;;;5.85;1.52;;;11.80;99.90;;;;;;5070716;28;20048;-81
2023/01/08 11:49:12;;;;;;;5.40;1.30;;;11.40;99.90;;;;;;5008912;28;20132;-79
2023/01/08 11:52:14;;;;;;;11.18;2.05;;;11.30;99.90;;;;;;5066600;28;20142;-79
2023/01/08 11:55:01;;;;;;;5.05;1.52;;;11.60;99.90;;;;;;5071025;28;20044;-78
2023/01/08 11:58:04;;;;;;;8.75;1.38;;;12.00;99.90;;;;;;5069986;28;20044;-78
2023/01/08 12:00:56;;;;;;;1.92;1.00;;;11.70;99.90;;;;;;5071352;28;20053;-78
2023/01/08 12:03:48;;;;;;;5.32;1.20;;;11.10;99.90;;;;;;5069308;28;20074;-77
2023/01/08 12:06:23;;;;;;;7.10;1.20;;;10.70;99.90;;;;;;5070420;28;20073;-79
2023/01/08 12:09:03;;;;;;;6.57;1.70;;;10.70;99.90;;;;;;5069815;28;20082;-77
2023/01/08 12:11:48;;;;;;;10.10;1.63;;;10.50;99.90;;;;;;5070513;28;20048;-77
2023/01/08 12:14:31;;;;;;;8.25;1.42;;;10.20;99.90;;;;;;5070090;28;20136;-78
2023/01/08 12:17:29;;;;;;;6.20;1.08;;;10.00;99.90;;;;;;5068649;28;20106;-80
2023/01/08 12:20:38;;;;;;;6.05;1.33;;;10.10;99.90;;;;;;5070134;28;20051;-79
2023/01/08 12:23:13;;;;;;;3.75;1.00;;;11.20;99.90;;;;;;5038770;28;20091;-80
2023/01/08 12:25:50;;;;;;;6.75;1.40;;;12.20;99.90;;;;;;5070283;28;20041;-81
2023/01/08 12:28:22;;;;;;;5.53;1.50;;;13.10;99.90;;;;;;5070218;28;20185;-79
2023/01/08 12:31:09;;;;;;;7.30;1.77;;;12.60;99.90;;;;;;5070156;28;20055;-86
2023/01/08 12:33:38;;;;;;;6.03;1.95;;;12.40;99.90;;;;;;5069299;28;20044;-79
2023/01/08 12:36:17;;;;;;;5.63;1.95;;;12.70;99.90;;;;;;5051817;28;20115;-79
2023/01/08 12:38:48;;;;;;;4.60;1.50;;;13.10;99.90;;;;;;5070491;28;20053;-79
2023/01/08 12:41:17;;;;;;;5.05;1.98;;;13.00;99.90;;;;;;5070748;28;20116;-81
2023/01/08 12:44:00;;;;;;;4.90;1.30;;;13.60;99.90;;;;;;5070616;28;20331;-80
2023/01/08 12:46:32;;;;;;;3.28;1.25;;;14.30;99.90;;;;;;5070576;28;20037;-79
2023/01/08 12:48:59;;;;;;;6.43;1.23;;;14.40;99.90;;;;;;5070408;28;20166;-80
2023/01/08 12:51:37;;;;;;;4.60;1.55;;;14.80;99.90;;;;;;5070594;28;20084;-80
2023/01/08 12:54:27;;;;;;;8.40;1.27;;;15.40;99.90;;;;;;5068873;28;20044;-81
2023/01/08 12:57:14;;;;;;;3.85;1.30;;;15.90;99.90;;;;;;5070151;28;20084;-81
2023/01/08 13:00:04;;;;;;;5.68;1.33;;;16.10;99.90;;;;;;5070395;28;20506;-81
2023/01/08 13:02:50;;;;;;;7.50;1.23;;;15.80;99.90;;;;;;5069636;28;20048;-83
2023/01/08 13:05:19;;;;;;;6.35;1.20;;;16.20;99.90;;;;;;5069409;28;20068;-80
2023/01/08 13:07:49;;;;;;;4.53;1.02;;;15.90;99.90;;;;;;5070019;28;20044;-80
2023/01/08 13:10:54;;;;;;;6.32;1.50;;;15.90;99.90;;;;;;5069300;28;20123;-80
2023/01/08 13:13:31;;;;;;;5.22;1.30;;;16.30;99.90;;;;;;4991729;28;20110;-80
2023/01/08 13:16:16;;;;;;;4.80;1.15;;;16.50;99.90;;;;;;4991688;28;20192;-80